Latest Weather Observations for Wulungurru (Kintore)

IDD60801

Issued at 11:05 am CST Friday 1 August 2014 (issued every 30 minutes, with the page automatically refreshed every 10 minutes)

About weather observations | Map of weather stations | Latest weather observations for NT | Other Formats
Station Details ID: 015664 Name: WALUNGURRU AIRPORT Lat: -23.27 Lon: 129.38 Height: 454.3 m
Data from the previous 72 hours. | See also: Recent months at Wulungurru (Kintore)
Date/Time
CST
Temp
°C
App
Temp
°C
Dew
Point
Rel
Hum
%
Delta-T
°C
Wind Press
QNH
hPa
Press
MSL
hPa
Rain
since 9 am
mm
Dir
 
Spd
km/h
Gust
km/h
Spd
kts
Gust
kts
01/11:00am 19.2 13.7 1.7 31 8.1 ESE 20 32 11 17 1023.2 - 0.0
01/10:30am 18.2 12.9 1.7 33 7.6 ESE 19 28 10 15 1023.3 - 0.0
01/10:00am 17.1 10.0 1.5 35 7.1 ESE 28 41 15 22 1023.0 - 0.0
01/09:52am 17.1 10.1 1.9 36 7.0 ESE 28 46 15 25 1022.9 - 0.0
01/09:30am 16.2 8.4 1.5 37 6.6 SE 32 44 17 24 1022.6 - 0.0
01/09:00am 14.9 6.9 1.8 41 5.9 SSE 33 46 18 25 1022.3 1021.7 0.0
01/08:30am 13.9 6.1 1.5 43 5.5 SSE 32 43 17 23 1022.0 - 0.0
01/08:00am 12.9 5.4 1.3 45 5.1 SSE 30 46 16 25 1021.7 - 0.0
01/07:30am 12.5 5.0 0.9 45 5.0 SSE 30 39 16 21 1021.5 - 0.0
01/07:00am 12.7 5.1 0.8 44 5.1 SSE 30 39 16 21 1021.2 - 0.0
01/06:30am 13.1 5.5 0.8 43 5.3 SSE 30 41 16 22 1020.7 - 0.0
01/06:00am 12.9 5.3 0.6 43 5.3 SSE 30 39 16 21 1020.5 1019.9 0.0
01/05:30am 13.0 5.0 0.1 41 5.5 SSE 32 37 17 20 1020.3 - 0.0
01/05:00am 13.9 6.1 -0.5 37 6.1 SSE 30 39 16 21 1020.2 - 0.0
01/04:30am 14.5 6.8 -0.4 36 6.4 SSE 30 37 16 20 1020.0 - 0.0
01/04:00am 15.1 7.0 -0.6 34 6.7 SSE 32 50 17 27 1019.9 - 0.0
01/03:30am 14.9 7.8 -1.6 32 6.9 SSE 26 33 14 18 1019.9 - 0.0
01/03:00am 15.4 7.8 -2.1 30 7.3 SSE 28 37 15 20 1019.8 1019.1 0.0
01/02:30am 14.9 8.4 -2.5 30 7.1 SSE 22 26 12 14 1019.9 - 0.0
01/02:00am 15.5 9.4 -2.4 29 7.4 SSE 20 24 11 13 1020.1 - 0.0
01/01:30am 15.2 9.3 -2.2 30 7.2 S 19 22 10 12 1020.0 - 0.0
01/01:00am 15.6 9.7 -1.9 30 7.3 S 19 20 10 11 1020.0 - 0.0
01/12:30am 16.3 10.5 -1.7 29 7.6 SSE 19 22 10 12 1020.0 - 0.0
01/12:00am 16.4 11.0 -1.7 29 7.6 SE 17 20 9 11 1020.0 1019.3 0.0
 
Date/Time
CST
Temp
°C
App
Temp
°C
Dew
Point
Rel
Hum
%
Delta-T
°C
Wind Press
QNH
hPa
Press
MSL
hPa
Rain
since 9 am
mm
Dir
 
Spd
km/h
Gust
km/h
Spd
kts
Gust
kts
31/11:30pm 17.7 12.0 -1.0 28 8.1 SSE 19 22 10 12 1019.9 - 0.0
31/11:00pm 17.0 11.8 -0.2 31 7.6 SSE 17 20 9 11 1019.8 - 0.0
31/10:30pm 17.3 12.4 -0.4 30 7.8 SSE 15 17 8 9 1019.7 - 0.0
31/10:00pm 17.6 12.7 -0.2 30 7.9 SSE 15 17 8 9 1019.7 - 0.0
31/09:30pm 18.0 13.5 -0.3 29 8.1 S 13 15 7 8 1019.5 - 0.0
31/09:00pm 17.4 13.3 0.1 31 7.7 SSE 11 11 6 6 1019.3 1019.1 0.0
31/08:30pm 18.0 14.3 0.2 30 8.0 S 9 11 5 6 1019.2 - 0.0
31/08:00pm 17.8 14.2 0.9 32 7.7 S 9 13 5 7 1018.9 - 0.0
31/07:30pm 18.9 14.9 0.5 29 8.3 SW 11 15 6 8 1018.5 - 0.0
31/07:00pm 20.8 17.1 0.1 25 9.5 S 9 11 5 6 1018.2 - 0.0
31/06:30pm 22.9 18.8 0.1 22 10.6 S 11 17 6 9 1017.9 - 0.0
31/06:00pm 25.0 20.1 -0.2 19 11.8 WSW 15 19 8 10 1017.7 1017.5 0.0
31/05:30pm 25.9 20.7 -0.2 18 12.3 WSW 17 24 9 13 1017.6 - 0.0
31/05:00pm 26.5 21.0 0.3 18 12.5 WSW 19 28 10 15 1017.4 - 0.0
31/04:30pm 26.9 22.0 -0.2 17 12.9 SW 15 22 8 12 1017.3 - 0.0
31/04:00pm 27.0 21.4 -0.1 17 12.9 SSW 19 26 10 14 1017.4 - 0.0
31/03:30pm 26.8 21.3 -2.0 15 13.3 WSW 17 28 9 15 1017.7 - 0.0
31/03:00pm 27.4 22.1 -0.6 16 13.3 W 17 32 9 17 1017.9 1017.7 0.0
31/02:30pm 27.0 21.3 -0.9 16 13.1 W 19 28 10 15 1018.2 - 0.0
31/02:00pm 26.6 22.1 -0.4 17 12.8 SSW 13 22 7 12 1018.6 - 0.0
31/01:30pm 27.1 21.9 0.0 17 13.0 WSW 17 28 9 15 1019.2 - 0.0
31/01:00pm 26.4 21.1 -0.6 17 12.7 WSW 17 24 9 13 1019.7 - 0.0
31/12:30pm 25.5 21.6 0.9 20 11.8 SSE 11 24 6 13 1020.1 - 0.0
31/12:00pm 25.3 20.3 1.4 21 11.5 S 17 22 9 12 1020.7 1020.6 0.0
31/11:30am 24.3 18.7 1.2 22 11.1 SSE 20 28 11 15 1021.0 - 0.0
31/11:00am 23.2 17.9 2.1 25 10.2 SSE 19 24 10 13 1021.3 - 0.0
31/10:30am 22.2 16.7 0.7 24 10.0 SE 19 24 10 13 1021.4 - 0.0
31/10:00am 20.7 16.0 1.1 27 9.1 SSE 15 19 8 10 1021.4 - 0.0
31/09:30am 19.7 14.6 0.7 28 8.7 SSE 17 22 9 12 1021.3 - 0.0
31/09:00am 17.1 15.2 3.1 39 6.6 WSW 2 9 1 5 1021.2 1021.0 0.0
31/08:30am 13.5 12.0 3.0 49 4.8 CALM 0 6 0 3 1021.0 - 0.0
31/08:00am 11.8 9.8 2.3 52 4.2 W 2 6 1 3 1020.6 - 0.0
31/07:30am 9.8 8.0 1.2 55 3.6 CALM 0 2 0 1 1020.4 - 0.0
31/07:00am 11.6 8.6 1.8 51 4.3 S 7 11 4 6 1020.1 - 0.0
31/06:30am 9.8 6.4 1.7 57 3.5 S 9 15 5 8 1020.1 - 0.0
31/06:00am 9.9 6.5 1.8 57 3.5 SE 9 13 5 7 1019.7 1019.5 0.0
31/05:30am 10.2 6.4 1.8 56 3.6 SE 11 15 6 8 1019.6 - 0.0
31/05:00am 10.5 6.8 2.1 56 3.7 SSE 11 15 6 8 1019.5 - 0.0
31/04:30am 10.6 7.6 1.7 54 3.8 SSE 7 9 4 5 1019.5 - 0.0
31/04:00am 10.8 7.5 2.4 56 3.7 SSE 9 13 5 7 1019.5 - 0.0
31/03:30am 10.0 7.5 1.6 56 3.6 E 4 11 2 6 1019.7 - 0.0
31/03:00am 11.4 8.1 2.4 54 4.0 NE 9 13 5 7 1019.6 1019.4 0.0
31/02:30am 11.6 8.2 1.8 51 4.3 SSE 9 11 5 6 1019.6 - 0.0
31/02:00am 11.2 7.9 2.2 54 4.0 ESE 9 9 5 5 1019.8 - 0.0
31/01:30am 11.8 8.9 2.8 54 4.0 E 7 7 4 4 1020.0 - 0.0
31/01:00am 11.5 7.9 3.0 56 3.8 ENE 11 11 6 6 1020.0 - 0.0
31/12:30am 12.3 10.0 3.0 53 4.2 NE 4 9 2 5 1020.0 - 0.0
31/12:00am 13.2 10.8 2.4 48 4.8 E 4 6 2 3 1020.1 1019.9 0.0
 
Date/Time
CST
Temp
°C
App
Temp
°C
Dew
Point
Rel
Hum
%
Delta-T
°C
Wind Press
QNH
hPa
Press
MSL
hPa
Rain
since 9 am
mm
Dir
 
Spd
km/h
Gust
km/h
Spd
kts
Gust
kts
30/11:30pm 13.4 10.6 2.3 47 5.0 S 6 7 3 4 1020.2 - 0.0
30/11:00pm 13.3 11.7 2.2 47 5.0 CALM 0 6 0 3 1020.4 - 0.0
30/10:30pm 14.2 11.5 2.8 46 5.2 SSE 6 7 3 4 1020.4 - 0.0
30/10:00pm 14.2 12.5 2.1 44 5.4 CALM 0 0 0 0 1020.3 - 0.0
30/09:30pm 15.6 14.0 2.4 41 6.1 CALM 0 0 0 0 1020.3 - 0.0
30/09:00pm 15.6 12.3 2.4 41 6.0 SSE 9 11 5 6 1020.1 1019.9 0.0
30/08:30pm 16.4 13.1 2.4 39 6.5 SW 9 9 5 5 1019.9 - 0.0
30/08:00pm 17.3 15.3 2.5 37 6.9 SW 2 9 1 5 1019.8 - 0.0
30/07:30pm 18.4 15.4 1.9 33 7.7 SW 7 9 4 5 1019.5 - 0.0
30/07:00pm 20.1 16.9 1.0 28 8.8 W 7 9 4 5 1019.2 - 0.0
30/06:30pm 22.4 18.8 0.3 23 10.3 WSW 9 11 5 6 1019.0 - 0.0
30/06:00pm 25.7 22.1 0.4 19 12.0 WSW 9 13 5 7 1018.9 1018.7 0.0
30/05:30pm 26.7 23.0 -0.3 17 12.8 W 9 19 5 10 1018.8 - 0.0
30/05:00pm 26.8 22.7 -0.3 17 12.9 NW 11 15 6 8 1018.6 - 0.0
30/04:30pm 27.5 23.7 -0.5 16 13.3 NW 9 17 5 9 1018.6 - 0.0
30/04:00pm 27.2 23.5 0.1 17 13.0 NW 9 19 5 10 1018.8 - 0.0
30/03:30pm 27.6 24.2 -0.5 16 13.4 WSW 7 13 4 7 1019.0 - 0.0
30/03:00pm 27.4 22.6 0.2 17 13.1 WNW 15 24 8 13 1019.4 1019.2 0.0
30/02:30pm 26.9 23.4 -1.0 16 13.1 W 7 17 4 9 1019.7 - 0.0
30/02:00pm 27.2 22.4 0.1 17 13.0 WNW 15 35 8 19 1020.2 - 0.0
30/01:30pm 27.3 22.4 -0.7 16 13.2 N 15 20 8 11 1020.9 - 0.0
30/01:00pm 25.9 21.3 -1.0 17 12.5 N 13 19 7 10 1021.6 - 0.0
30/12:30pm 25.9 21.0 -0.2 18 12.3 N 15 24 8 13 1022.3 - 0.0
30/12:00pm 25.1 19.8 -0.9 18 12.0 NNE 17 24 9 13 1022.6 1022.5 0.0
30/11:30am 24.4 19.2 0.0 20 11.4 NNE 17 24 9 13 1022.9 - 0.0
30/11:00am 23.4 17.2 -0.1 21 10.9 NE 22 28 12 15 1023.3 - 0.0
30/10:30am 22.4 16.1 -1.0 21 10.6 NE 22 30 12 16 1023.5 - 0.0
30/10:00am 20.7 14.2 0.5 26 9.3 ENE 24 30 13 16 1023.6 - 0.0
30/09:30am 19.0 12.1 0.1 28 8.5 ENE 26 32 14 17 1023.2 - 0.0
30/09:00am 18.6 13.0 0.2 29 8.2 E 19 28 10 15 1023.0 1022.9 0.0
30/08:30am 18.4 12.8 0.1 29 8.2 E 19 26 10 14 1022.7 - 0.0
30/08:00am 15.2 11.0 -0.9 33 6.9 SE 11 15 6 8 1022.4 - 0.0
30/07:30am 17.2 11.9 -0.5 30 7.7 E 17 26 9 14 1022.0 - 0.0
30/07:00am 17.4 13.0 0.1 31 7.7 E 13 20 7 11 1021.7 - 0.0
30/06:30am 15.4 11.0 -2.1 30 7.3 S 11 17 6 9 1021.6 - 0.0
30/06:00am 17.0 11.8 -2.6 26 8.2 SE 15 22 8 12 1021.2 1021.0 0.0
30/05:30am 15.5 10.4 -2.0 30 7.3 SSE 15 17 8 9 1020.9 - 0.0
30/05:00am 15.5 10.0 -2.0 30 7.3 S 17 19 9 10 1020.9 - 0.0
30/04:30am 17.7 12.1 -2.6 25 8.5 SE 17 22 9 12 1021.0 - 0.0
30/04:00am 19.9 13.8 -2.4 22 9.6 ESE 20 26 11 14 1021.3 - 0.0
30/03:30am 17.2 12.5 -1.9 27 8.1 SSE 13 17 7 9 1021.5 - 0.0
30/03:00am 19.7 13.9 -1.4 24 9.2 ESE 19 24 10 13 1021.6 1021.4 0.0
30/02:30am 16.7 11.2 -1.9 28 7.9 SSE 17 19 9 10 1021.8 - 0.0
30/02:00am 17.4 11.9 -1.8 27 8.2 S 17 20 9 11 1022.0 - 0.0
30/01:30am 17.4 11.4 -1.3 28 8.1 S 20 22 11 12 1022.3 - 0.0
30/01:00am 17.1 12.1 -1.5 28 8.0 SSE 15 20 8 11 1022.4 - 0.0
30/12:30am 17.4 11.6 -1.3 28 8.1 S 19 24 10 13 1022.6 - 0.0
30/12:00am 18.6 12.8 -1.3 26 8.6 SSE 19 22 10 12 1022.5 1022.4 0.0
 
Date/Time
CST
Temp
°C
App
Temp
°C
Dew
Point
Rel
Hum
%
Delta-T
°C
Wind Press
QNH
hPa
Press
MSL
hPa
Rain
since 9 am
mm
Dir
 
Spd
km/h
Gust
km/h
Spd
kts
Gust
kts
29/11:30pm 18.9 13.2 -1.0 26 8.7 SSE 19 22 10 12 1022.6 - 0.0
29/11:00pm 18.0 12.3 -0.8 28 8.2 S 19 22 10 12 1022.6 - 0.0
29/10:30pm 17.5 12.2 -0.7 29 8.0 S 17 19 9 10 1022.6 - 0.0
29/10:00pm 18.3 13.0 -0.5 28 8.3 S 17 19 9 10 1022.6 - 0.0
29/09:30pm 18.6 13.0 -0.2 28 8.4 S 19 20 10 11 1022.5 - 0.0
29/09:00pm 18.4 13.6 0.1 29 8.2 SSE 15 17 8 9 1022.4 1022.3 0.0
29/08:30pm 19.2 14.0 0.3 28 8.6 SSE 17 20 9 11 1022.2 - 0.0
29/08:00pm 19.4 14.6 0.4 28 8.6 S 15 17 8 9 1022.0 - 0.0
29/07:30pm 20.1 15.3 0.5 27 9.0 SSE 15 17 8 9 1021.7 - 0.0
29/07:00pm 20.8 16.8 0.6 26 9.3 S 11 11 6 6 1021.3 - 0.0
29/06:30pm 22.8 19.6 0.6 23 10.4 S 7 9 4 5 1020.8 - 0.0
29/06:00pm 25.3 22.2 0.0 19 11.9 S 6 11 3 6 1020.5 1020.4 0.0
29/05:30pm 26.3 23.0 0.1 18 12.5 SE 7 17 4 9 1020.3 - 0.0
29/05:00pm 26.6 22.8 -0.4 17 12.8 S 9 19 5 10 1020.1 - 0.0
29/04:30pm 27.4 23.7 0.2 17 13.1 NW 9 13 5 7 1020.0 - 0.0
29/04:00pm 27.1 23.8 0.0 17 13.0 S 7 11 4 6 1020.1 - 0.0
29/03:30pm 27.4 23.9 1.0 18 12.9 S 9 17 5 9 1020.2 - 0.0
29/03:00pm 27.3 24.1 0.9 18 12.8 ENE 7 13 4 7 1020.4 1020.2 0.0
29/02:30pm 27.2 22.9 0.8 18 12.8 E 13 20 7 11 1020.6 - 0.0
29/02:00pm 26.9 23.3 0.6 18 12.7 SE 9 17 5 9 1020.9 - 0.0
29/01:30pm 26.8 23.2 0.5 18 12.7 NNW 9 19 5 10 1021.4 - 0.0
29/01:00pm 26.7 23.4 0.4 18 12.6 ENE 7 17 4 9 1022.2 - 0.0
29/12:30pm 26.7 23.6 1.2 19 12.4 SE 7 17 4 9 1022.5 - 0.0
29/12:00pm 26.7 22.9 1.9 20 12.2 ESE 11 17 6 9 1022.9 1022.8 0.0
29/11:30am 25.4 22.4 2.2 22 11.4 SE 7 13 4 7 1023.1 - 0.0

Other Formats:

Comma delimited format used in spreadsheet applications
http://www.bom.gov.au/fwo/IDD60801/IDD60801.94321.axf

JavaScript Object Notation format (JSON) in row-major order
http://www.bom.gov.au/fwo/IDD60801/IDD60801.94321.json